De Winton South Calgary Airport

CEH4 · 艾伯塔, 加拿大

使用的METAR站距离机场19 NM。
罗盘
风向 的 风向 150° De Winton South Calgary Airport 10/28
风向 到 风: 8 kt, 阵阵 15 kt, 3 beaufort

7 kt

4 kt
改变
0 ft 6.000 12.000 18.000 24.000 30.000
Cloud Cloud
FEW 15.000
Cloud Cloud Cloud Cloud
SCT 30.000
METAR CYYC 050100Z 15008G15KT 10SM FEW150 SCT300 M19/M24 A2980 RMK AC1CI3 AC TR SLP196

METAR De Winton South Calgary Airport - CEH4

De Winton South Calgary Airport是,加拿大中的小机场。 该机场位于纬度50,82052和经度-113,82165。 该机场有2条跑道: 10/28 和 16/34. 该机场的伪ICAO代码为CEH4。 机场在Edmonton FIR中。

该航空气象观测是针对Calgary International Airport在2024年3月4日 18:00, 当地时间进行的。

机场观察

风向为150°,速度为8 kt。 已测得15 kt的阵风。

可见度为10 mi。

有几云在15.000 ft的高度 和 疏云,零星散落的云朵在30.000 ft的高度。 没有观察到天花板。

温度为-19 °C,阵风为-31 °C。 露点为-24 °C,相对湿度为65%。 海平面上的气压为29,80 inHg (QNH)。

白天

今天,太阳从07:08升起,在18:24降落。 这适用于De Winton South Calgary Airport,世界夏令时可能有所不同。 当地时间与世界标准时间之间的时差为-7 小时。 当前,没有夏令时有效。

公司介绍

我们没有关于这个机场的公司信息。

体会

到Vliegles.nl去找飞行课程,跳伞和其他飞行体验。 浏览页面,了解De Winton South Calgary Airport附近所有可用的活动。 你也可以使用搜索功能来寻找你所在地附近的特定飞行课程、跳伞或其他飞行体验。

跑道

Id 标题 侧风 逆风 侧风 %
10/28 123°-303° 4-7 kt 7-13 kt 45 %
16/34 180°-360° 4-8 kt 7-13 kt 50 %

逆风成分最大的方向会被突出显示,并用于横风计算。 这并不一定意味着这个方向在使用。

乌云

15.000 ft FEW 几云
30.000 ft SCT 疏云,零星散落的云朵

温度 & 天气

温度 -19 °C
露点 -24 °C
相对湿度 65%
风寒 -31 °C
Kp-index 2 (0-9)

评论

SLP196海平面压力为30,11 inHg (30,11 inHg)
AC1CI3 AC TR

白天

日出
07:09 (12:50)
中午
12:47
日落
18:24

小工具

你想在你的网站上有一个关于De Winton South Calgary Airport的当前航空天气(METAR)的小部件吗?

显示HTML代码
?>